KDCA

Ronald Reagan Washington National Airport

Washington, Virginia, USA
METAR KDCA 160552Z 21003KT 10SM BKN250 24/21 A3006 RMK SLP179 T02440211
Observed Flight Rules
Aug-16 @ 05:52 UTC (24 minutes ago) Visual Flight Rules
Wind Visibility Clouds
210° at 3 knots 10 miles
  • Broken at 25,000' AGL
Temperatures Readings
Current 24°C / 75°F
Dewpoint 21°C / 70°F
Humidity 83%
Altimeter 30.06" Hg
Pressure 1017.9 hPa
Elevation 18
METAR KDCA 160552Z 21003KT 10SM BKN250 24/21 A3006 RMK SLP179 T02440211
Observed Flight Rules
Aug-16 @ 05:52 UTC
(24 minutes ago)
VFR
Wind Visibility
210° at 3 knots 10 miles
Clouds
  • Broken at 25,000' AGL
Temperature Dewpoint
24°C / 75°F 21°C / 70°F
Humidity Altimeter Pressure
83% 30.06" Hg 1017.9 hPa